sensor_id;sensor_type;location;lat;lon;timestamp;temperature;humidity
77613;DHT22;66777;52.282;5.960;2023-08-31T00:02:18;14.60;78.80
77613;DHT22;66777;52.282;5.960;2023-08-31T00:04:45;14.60;78.50
77613;DHT22;66777;52.282;5.960;2023-08-31T00:07:10;14.60;78.40
77613;DHT22;66777;52.282;5.960;2023-08-31T00:09:36;14.60;78.50
77613;DHT22;66777;52.282;5.960;2023-08-31T00:12:02;14.60;78.60
77613;DHT22;66777;52.282;5.960;2023-08-31T00:14:28;14.60;78.30
77613;DHT22;66777;52.282;5.960;2023-08-31T00:16:54;14.60;78.30
77613;DHT22;66777;52.282;5.960;2023-08-31T00:19:23;14.50;78.30
77613;DHT22;66777;52.282;5.960;2023-08-31T00:21:49;14.50;78.40
77613;DHT22;66777;52.282;5.960;2023-08-31T00:24:14;14.50;78.40
77613;DHT22;66777;52.282;5.960;2023-08-31T00:26:40;14.50;78.50
77613;DHT22;66777;52.282;5.960;2023-08-31T00:29:10;14.50;78.40
77613;DHT22;66777;52.282;5.960;2023-08-31T00:31:37;14.50;78.50
77613;DHT22;66777;52.282;5.960;2023-08-31T00:34:03;14.50;78.40
77613;DHT22;66777;52.282;5.960;2023-08-31T00:36:30;14.50;78.60
77613;DHT22;66777;52.282;5.960;2023-08-31T00:38:56;14.50;78.50
77613;DHT22;66777;52.282;5.960;2023-08-31T00:41:22;14.50;78.50
77613;DHT22;66777;52.282;5.960;2023-08-31T00:43:48;14.50;78.70
77613;DHT22;66777;52.282;5.960;2023-08-31T00:46:14;14.50;78.70
77613;DHT22;66777;52.282;5.960;2023-08-31T00:48:40;14.50;78.70
77613;DHT22;66777;52.282;5.960;2023-08-31T00:51:07;14.60;78.80
77613;DHT22;66777;52.282;5.960;2023-08-31T00:53:34;14.50;79.00
77613;DHT22;66777;52.282;5.960;2023-08-31T00:56:01;14.50;79.10
77613;DHT22;66777;52.282;5.960;2023-08-31T00:58:27;14.50;79.40
77613;DHT22;66777;52.282;5.960;2023-08-31T01:01:47;14.50;79.50
77613;DHT22;66777;52.282;5.960;2023-08-31T01:04:38;14.50;79.80
77613;DHT22;66777;52.282;5.960;2023-08-31T01:13:14;14.50;80.50
77613;DHT22;66777;52.282;5.960;2023-08-31T01:15:41;14.40;80.90
77613;DHT22;66777;52.282;5.960;2023-08-31T01:18:12;14.40;81.30
77613;DHT22;66777;52.282;5.960;2023-08-31T01:21:24;14.30;81.60
77613;DHT22;66777;52.282;5.960;2023-08-31T01:26:12;14.10;84.10
77613;DHT22;66777;52.282;5.960;2023-08-31T01:28:38;14.00;85.00
77613;DHT22;66777;52.282;5.960;2023-08-31T01:31:05;14.10;85.40
77613;DHT22;66777;52.282;5.960;2023-08-31T01:33:31;14.10;85.60
77613;DHT22;66777;52.282;5.960;2023-08-31T01:35:58;14.00;85.90
77613;DHT22;66777;52.282;5.960;2023-08-31T01:38:28;14.00;85.90
77613;DHT22;66777;52.282;5.960;2023-08-31T01:40:57;14.00;86.30
77613;DHT22;66777;52.282;5.960;2023-08-31T01:43:27;14.10;86.50
77613;DHT22;66777;52.282;5.960;2023-08-31T01:45:53;14.10;86.50
77613;DHT22;66777;52.282;5.960;2023-08-31T01:48:19;14.10;86.70
77613;DHT22;66777;52.282;5.960;2023-08-31T01:50:46;14.10;86.80
77613;DHT22;66777;52.282;5.960;2023-08-31T01:53:12;14.10;87.00
77613;DHT22;66777;52.282;5.960;2023-08-31T01:55:38;14.10;87.00
77613;DHT22;66777;52.282;5.960;2023-08-31T01:58:04;14.20;87.20
77613;DHT22;66777;52.282;5.960;2023-08-31T02:00:29;14.10;86.80
77613;DHT22;66777;52.282;5.960;2023-08-31T02:03:00;14.10;86.80
77613;DHT22;66777;52.282;5.960;2023-08-31T02:05:26;14.00;86.80
77613;DHT22;66777;52.282;5.960;2023-08-31T02:07:51;13.90;87.50
77613;DHT22;66777;52.282;5.960;2023-08-31T02:10:17;13.90;87.30
77613;DHT22;66777;52.282;5.960;2023-08-31T02:12:43;13.90;87.70
77613;DHT22;66777;52.282;5.960;2023-08-31T02:15:09;13.90;87.60
77613;DHT22;66777;52.282;5.960;2023-08-31T02:17:35;13.80;87.70
77613;DHT22;66777;52.282;5.960;2023-08-31T02:20:01;13.80;87.80
77613;DHT22;66777;52.282;5.960;2023-08-31T02:22:30;13.80;87.90
77613;DHT22;66777;52.282;5.960;2023-08-31T02:24:56;13.70;87.70
77613;DHT22;66777;52.282;5.960;2023-08-31T02:27:22;13.70;87.90
77613;DHT22;66777;52.282;5.960;2023-08-31T02:29:48;13.70;87.90
77613;DHT22;66777;52.282;5.960;2023-08-31T02:32:14;13.80;88.00
77613;DHT22;66777;52.282;5.960;2023-08-31T02:34:40;13.80;88.10
77613;DHT22;66777;52.282;5.960;2023-08-31T02:37:06;13.80;87.70
77613;DHT22;66777;52.282;5.960;2023-08-31T02:39:32;13.70;87.70
77613;DHT22;66777;52.282;5.960;2023-08-31T02:41:57;13.70;87.90
77613;DHT22;66777;52.282;5.960;2023-08-31T02:44:23;13.70;88.00
77613;DHT22;66777;52.282;5.960;2023-08-31T02:46:49;13.70;88.00
77613;DHT22;66777;52.282;5.960;2023-08-31T02:49:15;13.80;88.10
77613;DHT22;66777;52.282;5.960;2023-08-31T02:51:41;13.80;88.00
77613;DHT22;66777;52.282;5.960;2023-08-31T02:54:07;13.80;87.90
77613;DHT22;66777;52.282;5.960;2023-08-31T02:56:33;13.70;87.90
77613;DHT22;66777;52.282;5.960;2023-08-31T02:58:58;13.80;87.70
77613;DHT22;66777;52.282;5.960;2023-08-31T03:01:24;13.70;87.60
77613;DHT22;66777;52.282;5.960;2023-08-31T03:03:50;13.70;87.70
77613;DHT22;66777;52.282;5.960;2023-08-31T03:06:16;13.70;88.00
77613;DHT22;66777;52.282;5.960;2023-08-31T03:08:41;13.70;87.90
77613;DHT22;66777;52.282;5.960;2023-08-31T03:11:07;13.70;88.00
77613;DHT22;66777;52.282;5.960;2023-08-31T03:13:33;13.70;88.20
77613;DHT22;66777;52.282;5.960;2023-08-31T03:16:00;13.70;88.30
77613;DHT22;66777;52.282;5.960;2023-08-31T03:18:27;13.80;88.20
77613;DHT22;66777;52.282;5.960;2023-08-31T03:20:54;13.80;88.30
77613;DHT22;66777;52.282;5.960;2023-08-31T03:23:19;13.80;88.30
77613;DHT22;66777;52.282;5.960;2023-08-31T03:25:45;13.80;88.10
77613;DHT22;66777;52.282;5.960;2023-08-31T03:28:11;13.80;88.00
77613;DHT22;66777;52.282;5.960;2023-08-31T03:30:37;13.70;88.00
77613;DHT22;66777;52.282;5.960;2023-08-31T03:33:03;13.80;88.20
77613;DHT22;66777;52.282;5.960;2023-08-31T03:35:28;13.80;88.20
77613;DHT22;66777;52.282;5.960;2023-08-31T03:37:55;13.70;88.20
77613;DHT22;66777;52.282;5.960;2023-08-31T03:40:21;13.80;88.40
77613;DHT22;66777;52.282;5.960;2023-08-31T03:42:49;13.70;88.20
77613;DHT22;66777;52.282;5.960;2023-08-31T03:45:14;13.80;88.30
77613;DHT22;66777;52.282;5.960;2023-08-31T03:47:40;13.80;88.30
77613;DHT22;66777;52.282;5.960;2023-08-31T03:50:07;13.90;88.50
77613;DHT22;66777;52.282;5.960;2023-08-31T03:52:33;13.90;88.50
77613;DHT22;66777;52.282;5.960;2023-08-31T03:54:59;13.80;88.40
77613;DHT22;66777;52.282;5.960;2023-08-31T03:57:25;13.80;88.40
77613;DHT22;66777;52.282;5.960;2023-08-31T03:59:51;13.80;88.40
77613;DHT22;66777;52.282;5.960;2023-08-31T04:02:16;13.80;88.30
77613;DHT22;66777;52.282;5.960;2023-08-31T04:04:42;13.80;88.30
77613;DHT22;66777;52.282;5.960;2023-08-31T04:07:07;13.80;88.50
77613;DHT22;66777;52.282;5.960;2023-08-31T04:09:33;13.80;88.40
77613;DHT22;66777;52.282;5.960;2023-08-31T04:11:59;13.70;88.30
77613;DHT22;66777;52.282;5.960;2023-08-31T04:14:28;13.70;88.40
77613;DHT22;66777;52.282;5.960;2023-08-31T04:16:55;13.70;88.30
77613;DHT22;66777;52.282;5.960;2023-08-31T04:19:21;13.70;88.40
77613;DHT22;66777;52.282;5.960;2023-08-31T04:21:48;13.70;88.40
77613;DHT22;66777;52.282;5.960;2023-08-31T04:24:14;13.70;88.40
77613;DHT22;66777;52.282;5.960;2023-08-31T04:26:39;13.70;88.50
77613;DHT22;66777;52.282;5.960;2023-08-31T04:29:05;13.70;88.40
77613;DHT22;66777;52.282;5.960;2023-08-31T04:31:32;13.70;88.40
77613;DHT22;66777;52.282;5.960;2023-08-31T04:33:58;13.70;88.40
77613;DHT22;66777;52.282;5.960;2023-08-31T04:36:24;13.70;88.50
77613;DHT22;66777;52.282;5.960;2023-08-31T04:38:51;13.70;88.60
77613;DHT22;66777;52.282;5.960;2023-08-31T04:41:17;13.70;88.60
77613;DHT22;66777;52.282;5.960;2023-08-31T04:43:44;13.70;88.70
77613;DHT22;66777;52.282;5.960;2023-08-31T04:46:09;13.70;88.70
77613;DHT22;66777;52.282;5.960;2023-08-31T04:48:36;13.70;88.70
77613;DHT22;66777;52.282;5.960;2023-08-31T04:51:01;13.70;88.50
77613;DHT22;66777;52.282;5.960;2023-08-31T04:53:29;13.70;88.60
77613;DHT22;66777;52.282;5.960;2023-08-31T04:55:55;13.70;88.50
77613;DHT22;66777;52.282;5.960;2023-08-31T04:58:21;13.70;88.50
77613;DHT22;66777;52.282;5.960;2023-08-31T05:00:47;13.70;88.50
77613;DHT22;66777;52.282;5.960;2023-08-31T05:03:13;13.70;88.70
77613;DHT22;66777;52.282;5.960;2023-08-31T05:05:39;13.80;88.80
77613;DHT22;66777;52.282;5.960;2023-08-31T05:08:08;13.80;88.60
77613;DHT22;66777;52.282;5.960;2023-08-31T05:10:34;13.70;88.60
77613;DHT22;66777;52.282;5.960;2023-08-31T05:12:59;13.70;88.50
77613;DHT22;66777;52.282;5.960;2023-08-31T05:15:26;13.70;88.50
77613;DHT22;66777;52.282;5.960;2023-08-31T05:17:55;13.70;88.60
77613;DHT22;66777;52.282;5.960;2023-08-31T05:20:22;13.70;88.70
77613;DHT22;66777;52.282;5.960;2023-08-31T05:22:49;13.70;88.60
77613;DHT22;66777;52.282;5.960;2023-08-31T05:25:14;13.70;88.60
77613;DHT22;66777;52.282;5.960;2023-08-31T05:27:40;13.70;88.80
77613;DHT22;66777;52.282;5.960;2023-08-31T05:30:07;13.80;88.70
77613;DHT22;66777;52.282;5.960;2023-08-31T05:32:33;13.80;88.80
77613;DHT22;66777;52.282;5.960;2023-08-31T05:35:00;13.80;88.90
77613;DHT22;66777;52.282;5.960;2023-08-31T05:37:31;13.80;88.80
77613;DHT22;66777;52.282;5.960;2023-08-31T05:39:57;13.80;89.00
77613;DHT22;66777;52.282;5.960;2023-08-31T05:42:23;13.80;89.00
77613;DHT22;66777;52.282;5.960;2023-08-31T05:44:49;13.80;89.10
77613;DHT22;66777;52.282;5.960;2023-08-31T05:47:14;13.80;89.20
77613;DHT22;66777;52.282;5.960;2023-08-31T05:49:40;13.90;89.30
77613;DHT22;66777;52.282;5.960;2023-08-31T05:52:06;13.90;89.20
77613;DHT22;66777;52.282;5.960;2023-08-31T05:54:32;13.90;89.10
77613;DHT22;66777;52.282;5.960;2023-08-31T05:56:57;13.90;89.20
77613;DHT22;66777;52.282;5.960;2023-08-31T05:59:23;13.90;89.40
77613;DHT22;66777;52.282;5.960;2023-08-31T06:01:49;13.90;89.50
77613;DHT22;66777;52.282;5.960;2023-08-31T06:04:14;13.90;89.60
77613;DHT22;66777;52.282;5.960;2023-08-31T06:06:40;13.90;89.40
77613;DHT22;66777;52.282;5.960;2023-08-31T06:09:06;13.90;89.50
77613;DHT22;66777;52.282;5.960;2023-08-31T06:11:32;13.90;89.70
77613;DHT22;66777;52.282;5.960;2023-08-31T06:13:58;14.00;89.70
77613;DHT22;66777;52.282;5.960;2023-08-31T06:16:24;14.00;89.80
77613;DHT22;66777;52.282;5.960;2023-08-31T06:18:50;14.00;89.90
77613;DHT22;66777;52.282;5.960;2023-08-31T06:21:16;14.00;90.00
77613;DHT22;66777;52.282;5.960;2023-08-31T06:23:42;14.10;90.00
77613;DHT22;66777;52.282;5.960;2023-08-31T06:26:08;14.10;89.90
77613;DHT22;66777;52.282;5.960;2023-08-31T06:28:33;14.10;89.80
77613;DHT22;66777;52.282;5.960;2023-08-31T06:30:59;14.10;89.60
77613;DHT22;66777;52.282;5.960;2023-08-31T06:33:25;14.00;89.60
77613;DHT22;66777;52.282;5.960;2023-08-31T06:35:51;14.00;89.80
77613;DHT22;66777;52.282;5.960;2023-08-31T06:38:18;14.00;89.80
77613;DHT22;66777;52.282;5.960;2023-08-31T06:40:44;14.00;89.90
77613;DHT22;66777;52.282;5.960;2023-08-31T06:43:10;14.00;90.00
77613;DHT22;66777;52.282;5.960;2023-08-31T06:45:35;14.10;90.10
77613;DHT22;66777;52.282;5.960;2023-08-31T06:48:01;14.10;90.20
77613;DHT22;66777;52.282;5.960;2023-08-31T06:50:28;14.10;90.10
77613;DHT22;66777;52.282;5.960;2023-08-31T06:52:53;14.10;90.00
77613;DHT22;66777;52.282;5.960;2023-08-31T06:55:19;14.10;90.10
77613;DHT22;66777;52.282;5.960;2023-08-31T06:57:45;14.10;90.00
77613;DHT22;66777;52.282;5.960;2023-08-31T07:00:12;14.10;90.10
77613;DHT22;66777;52.282;5.960;2023-08-31T07:02:40;14.10;90.10
77613;DHT22;66777;52.282;5.960;2023-08-31T07:05:07;14.10;90.40
77613;DHT22;66777;52.282;5.960;2023-08-31T07:07:33;14.10;90.60
77613;DHT22;66777;52.282;5.960;2023-08-31T07:09:59;14.20;90.50
77613;DHT22;66777;52.282;5.960;2023-08-31T07:12:25;14.20;90.40
77613;DHT22;66777;52.282;5.960;2023-08-31T07:14:51;14.20;90.40
77613;DHT22;66777;52.282;5.960;2023-08-31T07:17:20;14.20;90.50
77613;DHT22;66777;52.282;5.960;2023-08-31T07:19:46;14.20;90.50
77613;DHT22;66777;52.282;5.960;2023-08-31T07:22:13;14.20;90.50
77613;DHT22;66777;52.282;5.960;2023-08-31T07:24:38;14.20;90.60
77613;DHT22;66777;52.282;5.960;2023-08-31T07:27:04;14.30;90.70
77613;DHT22;66777;52.282;5.960;2023-08-31T07:29:30;14.30;90.80
77613;DHT22;66777;52.282;5.960;2023-08-31T07:31:57;14.30;90.70
77613;DHT22;66777;52.282;5.960;2023-08-31T07:34:23;14.40;90.80
77613;DHT22;66777;52.282;5.960;2023-08-31T07:36:49;14.50;91.00
77613;DHT22;66777;52.282;5.960;2023-08-31T07:39:15;14.50;91.10
77613;DHT22;66777;52.282;5.960;2023-08-31T07:41:43;14.60;91.10
77613;DHT22;66777;52.282;5.960;2023-08-31T07:44:09;14.60;91.10
77613;DHT22;66777;52.282;5.960;2023-08-31T07:46:35;14.70;91.10
77613;DHT22;66777;52.282;5.960;2023-08-31T07:49:01;14.80;91.20
77613;DHT22;66777;52.282;5.960;2023-08-31T07:51:27;14.80;91.20
77613;DHT22;66777;52.282;5.960;2023-08-31T07:53:53;14.90;91.30
77613;DHT22;66777;52.282;5.960;2023-08-31T07:56:19;15.00;91.30
77613;DHT22;66777;52.282;5.960;2023-08-31T07:58:45;15.00;91.30
77613;DHT22;66777;52.282;5.960;2023-08-31T08:01:11;15.20;91.10
77613;DHT22;66777;52.282;5.960;2023-08-31T08:03:37;15.20;91.30
77613;DHT22;66777;52.282;5.960;2023-08-31T08:06:02;15.30;91.20
77613;DHT22;66777;52.282;5.960;2023-08-31T08:08:29;15.30;91.10
77613;DHT22;66777;52.282;5.960;2023-08-31T08:10:56;15.20;91.10
77613;DHT22;66777;52.282;5.960;2023-08-31T08:13:21;15.30;91.20
77613;DHT22;66777;52.282;5.960;2023-08-31T08:15:47;15.30;91.40
77613;DHT22;66777;52.282;5.960;2023-08-31T08:18:13;15.40;91.20
77613;DHT22;66777;52.282;5.960;2023-08-31T08:20:39;15.30;91.10
77613;DHT22;66777;52.282;5.960;2023-08-31T08:23:05;15.30;91.30
77613;DHT22;66777;52.282;5.960;2023-08-31T08:25:32;15.30;91.40
77613;DHT22;66777;52.282;5.960;2023-08-31T08:27:58;15.30;91.30
77613;DHT22;66777;52.282;5.960;2023-08-31T08:30:24;15.40;91.50
77613;DHT22;66777;52.282;5.960;2023-08-31T08:32:49;15.50;91.50
77613;DHT22;66777;52.282;5.960;2023-08-31T08:35:16;15.50;91.40
77613;DHT22;66777;52.282;5.960;2023-08-31T08:37:41;15.50;91.10
77613;DHT22;66777;52.282;5.960;2023-08-31T08:40:08;15.40;91.20
77613;DHT22;66777;52.282;5.960;2023-08-31T08:42:39;15.40;91.30
77613;DHT22;66777;52.282;5.960;2023-08-31T08:45:12;15.30;91.50
77613;DHT22;66777;52.282;5.960;2023-08-31T08:47:44;15.30;91.60
77613;DHT22;66777;52.282;5.960;2023-08-31T08:50:11;15.30;91.40
77613;DHT22;66777;52.282;5.960;2023-08-31T08:52:38;15.20;91.60
77613;DHT22;66777;52.282;5.960;2023-08-31T08:55:05;15.20;91.60
77613;DHT22;66777;52.282;5.960;2023-08-31T08:57:31;15.20;91.50
77613;DHT22;66777;52.282;5.960;2023-08-31T09:00:00;15.20;91.70
77613;DHT22;66777;52.282;5.960;2023-08-31T09:02:26;15.20;91.80
77613;DHT22;66777;52.282;5.960;2023-08-31T09:04:52;15.20;91.90
77613;DHT22;66777;52.282;5.960;2023-08-31T09:07:23;15.30;92.00
77613;DHT22;66777;52.282;5.960;2023-08-31T09:09:53;15.30;92.00
77613;DHT22;66777;52.282;5.960;2023-08-31T09:12:23;15.40;92.20
77613;DHT22;66777;52.282;5.960;2023-08-31T09:15:03;15.40;92.00
77613;DHT22;66777;52.282;5.960;2023-08-31T09:17:41;15.40;91.90
77613;DHT22;66777;52.282;5.960;2023-08-31T09:20:09;15.40;92.00
77613;DHT22;66777;52.282;5.960;2023-08-31T09:22:35;15.50;92.00
77613;DHT22;66777;52.282;5.960;2023-08-31T09:25:01;15.50;92.00
77613;DHT22;66777;52.282;5.960;2023-08-31T09:27:27;15.50;92.10
77613;DHT22;66777;52.282;5.960;2023-08-31T09:29:56;15.60;92.20
77613;DHT22;66777;52.282;5.960;2023-08-31T09:32:23;15.60;92.00
77613;DHT22;66777;52.282;5.960;2023-08-31T09:34:49;15.50;91.80
77613;DHT22;66777;52.282;5.960;2023-08-31T09:37:16;15.40;91.60
77613;DHT22;66777;52.282;5.960;2023-08-31T09:39:42;15.40;91.60
77613;DHT22;66777;52.282;5.960;2023-08-31T09:42:08;15.40;91.70
77613;DHT22;66777;52.282;5.960;2023-08-31T09:44:40;15.40;91.80
77613;DHT22;66777;52.282;5.960;2023-08-31T09:47:09;15.40;92.10
77613;DHT22;66777;52.282;5.960;2023-08-31T09:49:35;15.50;92.10
77613;DHT22;66777;52.282;5.960;2023-08-31T09:52:03;15.50;92.20
77613;DHT22;66777;52.282;5.960;2023-08-31T09:54:30;15.60;92.30
77613;DHT22;66777;52.282;5.960;2023-08-31T09:56:59;15.60;92.30
77613;DHT22;66777;52.282;5.960;2023-08-31T09:59:28;15.60;92.30
77613;DHT22;66777;52.282;5.960;2023-08-31T10:01:55;15.80;92.40
77613;DHT22;66777;52.282;5.960;2023-08-31T10:04:27;15.80;92.30
77613;DHT22;66777;52.282;5.960;2023-08-31T10:06:55;15.70;92.20
77613;DHT22;66777;52.282;5.960;2023-08-31T10:09:21;15.70;92.50
77613;DHT22;66777;52.282;5.960;2023-08-31T10:11:48;15.60;92.40
77613;DHT22;66777;52.282;5.960;2023-08-31T10:14:13;15.60;92.50
77613;DHT22;66777;52.282;5.960;2023-08-31T10:16:41;15.60;92.50
77613;DHT22;66777;52.282;5.960;2023-08-31T10:19:09;15.50;92.40
77613;DHT22;66777;52.282;5.960;2023-08-31T10:21:35;15.40;92.60
77613;DHT22;66777;52.282;5.960;2023-08-31T10:24:01;15.40;92.60
77613;DHT22;66777;52.282;5.960;2023-08-31T10:26:30;15.40;92.60
77613;DHT22;66777;52.282;5.960;2023-08-31T10:28:58;15.40;92.80
77613;DHT22;66777;52.282;5.960;2023-08-31T10:31:28;15.40;92.80
77613;DHT22;66777;52.282;5.960;2023-08-31T10:33:57;15.40;92.90
77613;DHT22;66777;52.282;5.960;2023-08-31T10:36:34;15.50;92.90
77613;DHT22;66777;52.282;5.960;2023-08-31T10:39:04;15.50;93.00
77613;DHT22;66777;52.282;5.960;2023-08-31T10:41:34;15.50;93.00
77613;DHT22;66777;52.282;5.960;2023-08-31T10:44:00;15.50;93.00
77613;DHT22;66777;52.282;5.960;2023-08-31T10:46:59;15.50;93.10
77613;DHT22;66777;52.282;5.960;2023-08-31T10:49:25;15.60;93.10
77613;DHT22;66777;52.282;5.960;2023-08-31T10:51:56;15.60;93.20
77613;DHT22;66777;52.282;5.960;2023-08-31T10:56:52;15.60;93.00
77613;DHT22;66777;52.282;5.960;2023-08-31T10:59:24;15.60;92.90
77613;DHT22;66777;52.282;5.960;2023-08-31T11:02:00;15.60;93.00
77613;DHT22;66777;52.282;5.960;2023-08-31T11:04:29;15.60;93.00
77613;DHT22;66777;52.282;5.960;2023-08-31T11:09:41;15.60;92.70
77613;DHT22;66777;52.282;5.960;2023-08-31T11:12:08;15.50;92.30
77613;DHT22;66777;52.282;5.960;2023-08-31T11:14:34;15.40;92.10
77613;DHT22;66777;52.282;5.960;2023-08-31T11:17:00;15.40;92.30
77613;DHT22;66777;52.282;5.960;2023-08-31T11:19:27;15.40;92.50
77613;DHT22;66777;52.282;5.960;2023-08-31T11:21:54;15.50;92.90
77613;DHT22;66777;52.282;5.960;2023-08-31T11:24:20;15.60;93.20
77613;DHT22;66777;52.282;5.960;2023-08-31T11:26:53;15.80;93.50
77613;DHT22;66777;52.282;5.960;2023-08-31T11:29:21;16.00;93.50
77613;DHT22;66777;52.282;5.960;2023-08-31T11:31:46;16.10;93.40
77613;DHT22;66777;52.282;5.960;2023-08-31T11:34:17;16.30;93.50
77613;DHT22;66777;52.282;5.960;2023-08-31T11:36:44;16.40;93.30
77613;DHT22;66777;52.282;5.960;2023-08-31T11:39:10;16.60;93.20
77613;DHT22;66777;52.282;5.960;2023-08-31T11:41:37;16.70;93.20
77613;DHT22;66777;52.282;5.960;2023-08-31T11:44:17;16.80;93.20
77613;DHT22;66777;52.282;5.960;2023-08-31T11:46:44;17.00;93.20
77613;DHT22;66777;52.282;5.960;2023-08-31T11:49:11;17.20;92.90
77613;DHT22;66777;52.282;5.960;2023-08-31T11:51:37;17.20;92.60
77613;DHT22;66777;52.282;5.960;2023-08-31T11:54:04;17.20;92.20
77613;DHT22;66777;52.282;5.960;2023-08-31T11:59:09;17.30;92.10
77613;DHT22;66777;52.282;5.960;2023-08-31T12:01:41;17.30;91.80
77613;DHT22;66777;52.282;5.960;2023-08-31T12:04:11;17.30;91.60
77613;DHT22;66777;52.282;5.960;2023-08-31T12:06:37;17.40;91.50
77613;DHT22;66777;52.282;5.960;2023-08-31T12:09:07;17.40;91.60
77613;DHT22;66777;52.282;5.960;2023-08-31T12:11:34;17.50;91.40
77613;DHT22;66777;52.282;5.960;2023-08-31T12:14:04;17.50;91.30
77613;DHT22;66777;52.282;5.960;2023-08-31T12:16:43;17.60;91.20
77613;DHT22;66777;52.282;5.960;2023-08-31T12:19:09;17.70;91.40
77613;DHT22;66777;52.282;5.960;2023-08-31T12:21:35;17.80;91.20
77613;DHT22;66777;52.282;5.960;2023-08-31T12:24:01;17.90;91.10
77613;DHT22;66777;52.282;5.960;2023-08-31T12:26:29;18.00;91.00
77613;DHT22;66777;52.282;5.960;2023-08-31T12:28:55;18.00;90.60
77613;DHT22;66777;52.282;5.960;2023-08-31T12:31:22;18.00;90.50
77613;DHT22;66777;52.282;5.960;2023-08-31T12:33:49;18.10;90.00
77613;DHT22;66777;52.282;5.960;2023-08-31T12:36:15;18.10;90.10
77613;DHT22;66777;52.282;5.960;2023-08-31T12:38:41;18.10;89.30
77613;DHT22;66777;52.282;5.960;2023-08-31T12:41:07;18.10;89.00
77613;DHT22;66777;52.282;5.960;2023-08-31T12:43:34;18.10;88.80
77613;DHT22;66777;52.282;5.960;2023-08-31T12:46:01;18.10;88.50
77613;DHT22;66777;52.282;5.960;2023-08-31T12:48:27;18.10;88.90
77613;DHT22;66777;52.282;5.960;2023-08-31T12:50:53;18.20;87.90
77613;DHT22;66777;52.282;5.960;2023-08-31T12:53:21;18.20;86.60
77613;DHT22;66777;52.282;5.960;2023-08-31T12:55:47;18.20;86.70
77613;DHT22;66777;52.282;5.960;2023-08-31T12:58:13;18.20;86.60
77613;DHT22;66777;52.282;5.960;2023-08-31T13:00:38;18.30;86.00
77613;DHT22;66777;52.282;5.960;2023-08-31T13:03:05;18.30;86.20
77613;DHT22;66777;52.282;5.960;2023-08-31T13:05:32;18.30;85.60
77613;DHT22;66777;52.282;5.960;2023-08-31T13:07:58;18.30;85.50
77613;DHT22;66777;52.282;5.960;2023-08-31T13:10:24;18.40;85.90
77613;DHT22;66777;52.282;5.960;2023-08-31T13:12:49;18.40;84.60
77613;DHT22;66777;52.282;5.960;2023-08-31T13:15:15;18.50;83.80
77613;DHT22;66777;52.282;5.960;2023-08-31T13:17:41;18.50;84.50
77613;DHT22;66777;52.282;5.960;2023-08-31T13:20:07;18.60;84.10
77613;DHT22;66777;52.282;5.960;2023-08-31T13:22:34;18.70;83.10
77613;DHT22;66777;52.282;5.960;2023-08-31T13:25:00;18.70;83.70
77613;DHT22;66777;52.282;5.960;2023-08-31T13:27:25;18.80;84.20
77613;DHT22;66777;52.282;5.960;2023-08-31T13:29:51;18.80;83.40
77613;DHT22;66777;52.282;5.960;2023-08-31T13:32:17;18.90;83.50
77613;DHT22;66777;52.282;5.960;2023-08-31T13:34:43;18.90;83.30
77613;DHT22;66777;52.282;5.960;2023-08-31T13:37:10;19.00;82.70
77613;DHT22;66777;52.282;5.960;2023-08-31T13:39:37;19.10;82.90
77613;DHT22;66777;52.282;5.960;2023-08-31T13:42:03;19.00;83.40
77613;DHT22;66777;52.282;5.960;2023-08-31T13:44:30;19.00;83.50
77613;DHT22;66777;52.282;5.960;2023-08-31T13:46:58;19.00;83.40
77613;DHT22;66777;52.282;5.960;2023-08-31T13:49:24;19.00;83.60
77613;DHT22;66777;52.282;5.960;2023-08-31T13:51:50;19.00;83.30
77613;DHT22;66777;52.282;5.960;2023-08-31T13:54:16;19.00;83.70
77613;DHT22;66777;52.282;5.960;2023-08-31T13:56:41;18.90;82.50
77613;DHT22;66777;52.282;5.960;2023-08-31T13:59:08;18.80;83.00
77613;DHT22;66777;52.282;5.960;2023-08-31T14:01:34;18.70;83.20
77613;DHT22;66777;52.282;5.960;2023-08-31T14:04:00;18.80;82.90
77613;DHT22;66777;52.282;5.960;2023-08-31T14:06:26;18.80;82.80
77613;DHT22;66777;52.282;5.960;2023-08-31T14:08:52;19.00;82.00
77613;DHT22;66777;52.282;5.960;2023-08-31T14:11:17;19.10;81.60
77613;DHT22;66777;52.282;5.960;2023-08-31T14:13:43;19.20;82.30
77613;DHT22;66777;52.282;5.960;2023-08-31T14:16:11;19.20;82.80
77613;DHT22;66777;52.282;5.960;2023-08-31T14:18:37;19.20;82.80
77613;DHT22;66777;52.282;5.960;2023-08-31T14:21:03;19.10;82.40
77613;DHT22;66777;52.282;5.960;2023-08-31T14:23:29;19.10;82.40
77613;DHT22;66777;52.282;5.960;2023-08-31T14:26:03;19.00;82.80
77613;DHT22;66777;52.282;5.960;2023-08-31T14:28:30;19.00;82.00
77613;DHT22;66777;52.282;5.960;2023-08-31T14:30:56;19.00;82.00
77613;DHT22;66777;52.282;5.960;2023-08-31T14:33:21;19.00;82.30
77613;DHT22;66777;52.282;5.960;2023-08-31T14:35:49;18.90;81.40
77613;DHT22;66777;52.282;5.960;2023-08-31T14:38:20;19.00;82.00
77613;DHT22;66777;52.282;5.960;2023-08-31T14:40:50;19.10;81.80
77613;DHT22;66777;52.282;5.960;2023-08-31T14:43:16;19.30;80.80
77613;DHT22;66777;52.282;5.960;2023-08-31T14:45:42;19.50;79.50
77613;DHT22;66777;52.282;5.960;2023-08-31T14:48:09;19.70;79.20
77613;DHT22;66777;52.282;5.960;2023-08-31T14:50:35;20.30;78.00
77613;DHT22;66777;52.282;5.960;2023-08-31T14:53:00;20.90;76.30
77613;DHT22;66777;52.282;5.960;2023-08-31T14:55:26;21.20;74.50
77613;DHT22;66777;52.282;5.960;2023-08-31T14:57:52;21.70;73.50
77613;DHT22;66777;52.282;5.960;2023-08-31T15:00:18;21.90;72.60
77613;DHT22;66777;52.282;5.960;2023-08-31T15:02:46;22.20;72.20
77613;DHT22;66777;52.282;5.960;2023-08-31T15:05:13;23.30;68.70
77613;DHT22;66777;52.282;5.960;2023-08-31T15:07:39;24.20;66.90
77613;DHT22;66777;52.282;5.960;2023-08-31T15:10:05;24.80;65.60
77613;DHT22;66777;52.282;5.960;2023-08-31T15:12:32;25.40;64.10
77613;DHT22;66777;52.282;5.960;2023-08-31T15:14:59;25.80;63.40
77613;DHT22;66777;52.282;5.960;2023-08-31T15:17:25;26.00;63.00
77613;DHT22;66777;52.282;5.960;2023-08-31T15:19:51;26.40;62.60
77613;DHT22;66777;52.282;5.960;2023-08-31T15:22:17;26.30;62.40
77613;DHT22;66777;52.282;5.960;2023-08-31T15:24:45;26.60;62.50
77613;DHT22;66777;52.282;5.960;2023-08-31T15:27:11;27.00;61.50
77613;DHT22;66777;52.282;5.960;2023-08-31T15:29:37;27.30;61.30
77613;DHT22;66777;52.282;5.960;2023-08-31T15:32:03;27.50;60.80
77613;DHT22;66777;52.282;5.960;2023-08-31T15:34:29;27.70;60.70
77613;DHT22;66777;52.282;5.960;2023-08-31T15:36:54;27.00;61.50
77613;DHT22;66777;52.282;5.960;2023-08-31T15:39:20;25.00;65.90
77613;DHT22;66777;52.282;5.960;2023-08-31T15:41:47;24.40;67.60
77613;DHT22;66777;52.282;5.960;2023-08-31T15:44:13;24.00;68.00
77613;DHT22;66777;52.282;5.960;2023-08-31T15:46:38;22.70;70.80